sensor_id;sensor_type;location;lat;lon;timestamp;P1;durP1;ratioP1;P2;durP2;ratioP2
78308;SDS011;67566;42.022;21.356;2023-05-13T00:01:22;17.15;;;9.95;;
78308;SDS011;67566;42.022;21.356;2023-05-13T00:03:47;18.48;;;10.18;;
78308;SDS011;67566;42.022;21.356;2023-05-13T00:06:13;17.13;;;9.77;;
78308;SDS011;67566;42.022;21.356;2023-05-13T00:08:38;12.55;;;8.07;;
78308;SDS011;67566;42.022;21.356;2023-05-13T00:11:04;11.70;;;8.15;;
78308;SDS011;67566;42.022;21.356;2023-05-13T00:13:29;17.90;;;10.55;;
78308;SDS011;67566;42.022;21.356;2023-05-13T00:15:55;11.40;;;8.57;;
78308;SDS011;67566;42.022;21.356;2023-05-13T00:18:21;13.38;;;8.38;;
78308;SDS011;67566;42.022;21.356;2023-05-13T00:20:47;11.15;;;8.70;;
78308;SDS011;67566;42.022;21.356;2023-05-13T00:23:12;13.05;;;9.25;;
78308;SDS011;67566;42.022;21.356;2023-05-13T00:25:38;15.32;;;8.82;;
78308;SDS011;67566;42.022;21.356;2023-05-13T00:28:05;13.48;;;8.23;;
78308;SDS011;67566;42.022;21.356;2023-05-13T00:30:31;12.95;;;9.05;;
78308;SDS011;67566;42.022;21.356;2023-05-13T00:32:56;12.73;;;8.93;;
78308;SDS011;67566;42.022;21.356;2023-05-13T00:35:22;14.45;;;8.85;;
78308;SDS011;67566;42.022;21.356;2023-05-13T00:37:48;19.15;;;10.18;;
78308;SDS011;67566;42.022;21.356;2023-05-13T00:40:20;12.65;;;8.35;;
78308;SDS011;67566;42.022;21.356;2023-05-13T00:42:46;12.52;;;8.50;;
78308;SDS011;67566;42.022;21.356;2023-05-13T00:45:12;9.60;;;7.32;;
78308;SDS011;67566;42.022;21.356;2023-05-13T00:47:38;12.75;;;9.75;;
78308;SDS011;67566;42.022;21.356;2023-05-13T00:50:05;11.48;;;8.45;;
78308;SDS011;67566;42.022;21.356;2023-05-13T00:52:32;13.35;;;8.07;;
78308;SDS011;67566;42.022;21.356;2023-05-13T00:54:58;12.25;;;9.80;;
78308;SDS011;67566;42.022;21.356;2023-05-13T00:57:23;12.00;;;9.38;;
78308;SDS011;67566;42.022;21.356;2023-05-13T00:59:49;12.50;;;9.88;;
78308;SDS011;67566;42.022;21.356;2023-05-13T01:05:41;13.48;;;9.15;;
78308;SDS011;67566;42.022;21.356;2023-05-13T01:10:52;11.00;;;8.05;;
78308;SDS011;67566;42.022;21.356;2023-05-13T01:13:25;15.00;;;9.77;;
78308;SDS011;67566;42.022;21.356;2023-05-13T01:18:46;20.35;;;11.25;;
78308;SDS011;67566;42.022;21.356;2023-05-13T01:21:21;24.27;;;11.48;;
78308;SDS011;67566;42.022;21.356;2023-05-13T01:23:49;18.10;;;10.40;;
78308;SDS011;67566;42.022;21.356;2023-05-13T01:26:14;17.95;;;10.63;;
78308;SDS011;67566;42.022;21.356;2023-05-13T01:28:40;21.55;;;11.02;;
78308;SDS011;67566;42.022;21.356;2023-05-13T01:31:05;13.80;;;8.23;;
78308;SDS011;67566;42.022;21.356;2023-05-13T01:33:34;12.10;;;7.65;;
78308;SDS011;67566;42.022;21.356;2023-05-13T01:36:00;13.18;;;8.73;;
78308;SDS011;67566;42.022;21.356;2023-05-13T01:38:27;12.85;;;8.43;;
78308;SDS011;67566;42.022;21.356;2023-05-13T01:40:55;13.10;;;7.93;;
78308;SDS011;67566;42.022;21.356;2023-05-13T01:43:21;15.25;;;9.07;;
78308;SDS011;67566;42.022;21.356;2023-05-13T01:45:46;11.57;;;7.88;;
78308;SDS011;67566;42.022;21.356;2023-05-13T01:48:12;15.63;;;8.55;;
78308;SDS011;67566;42.022;21.356;2023-05-13T01:50:37;15.75;;;9.73;;
78308;SDS011;67566;42.022;21.356;2023-05-13T01:53:03;11.00;;;7.97;;
78308;SDS011;67566;42.022;21.356;2023-05-13T01:55:28;17.95;;;10.35;;
78308;SDS011;67566;42.022;21.356;2023-05-13T01:57:54;16.33;;;9.43;;
78308;SDS011;67566;42.022;21.356;2023-05-13T02:00:20;17.88;;;10.45;;
78308;SDS011;67566;42.022;21.356;2023-05-13T02:02:45;15.57;;;8.50;;
78308;SDS011;67566;42.022;21.356;2023-05-13T02:05:11;15.63;;;9.50;;
78308;SDS011;67566;42.022;21.356;2023-05-13T02:07:36;12.63;;;8.57;;
78308;SDS011;67566;42.022;21.356;2023-05-13T02:10:02;16.77;;;8.30;;
78308;SDS011;67566;42.022;21.356;2023-05-13T02:12:27;19.13;;;9.43;;
78308;SDS011;67566;42.022;21.356;2023-05-13T02:14:53;26.17;;;10.52;;
78308;SDS011;67566;42.022;21.356;2023-05-13T02:17:19;15.20;;;7.75;;
78308;SDS011;67566;42.022;21.356;2023-05-13T02:19:46;12.73;;;8.57;;
78308;SDS011;67566;42.022;21.356;2023-05-13T02:22:12;9.02;;;7.15;;
78308;SDS011;67566;42.022;21.356;2023-05-13T02:24:37;11.05;;;7.03;;
78308;SDS011;67566;42.022;21.356;2023-05-13T02:27:04;8.20;;;6.38;;
78308;SDS011;67566;42.022;21.356;2023-05-13T02:29:31;9.98;;;7.03;;
78308;SDS011;67566;42.022;21.356;2023-05-13T02:31:57;11.32;;;6.85;;
78308;SDS011;67566;42.022;21.356;2023-05-13T02:34:23;11.07;;;6.78;;
78308;SDS011;67566;42.022;21.356;2023-05-13T02:36:48;11.02;;;6.82;;
78308;SDS011;67566;42.022;21.356;2023-05-13T02:39:14;9.38;;;7.32;;
78308;SDS011;67566;42.022;21.356;2023-05-13T02:41:40;12.30;;;6.57;;
78308;SDS011;67566;42.022;21.356;2023-05-13T02:44:05;12.38;;;8.30;;
78308;SDS011;67566;42.022;21.356;2023-05-13T02:46:31;11.20;;;8.32;;
78308;SDS011;67566;42.022;21.356;2023-05-13T02:48:56;12.00;;;7.38;;
78308;SDS011;67566;42.022;21.356;2023-05-13T02:51:23;12.65;;;7.68;;
78308;SDS011;67566;42.022;21.356;2023-05-13T02:53:49;11.45;;;7.82;;
78308;SDS011;67566;42.022;21.356;2023-05-13T02:56:15;10.13;;;7.10;;
78308;SDS011;67566;42.022;21.356;2023-05-13T02:58:41;12.82;;;7.85;;
78308;SDS011;67566;42.022;21.356;2023-05-13T03:01:06;10.30;;;6.85;;
78308;SDS011;67566;42.022;21.356;2023-05-13T03:03:32;10.00;;;7.95;;
78308;SDS011;67566;42.022;21.356;2023-05-13T03:05:57;12.38;;;8.07;;
78308;SDS011;67566;42.022;21.356;2023-05-13T03:08:23;8.23;;;6.45;;
78308;SDS011;67566;42.022;21.356;2023-05-13T03:10:48;8.23;;;6.47;;
78308;SDS011;67566;42.022;21.356;2023-05-13T03:13:15;10.27;;;6.60;;
78308;SDS011;67566;42.022;21.356;2023-05-13T03:15:40;9.18;;;6.80;;
78308;SDS011;67566;42.022;21.356;2023-05-13T03:18:05;12.05;;;6.90;;
78308;SDS011;67566;42.022;21.356;2023-05-13T03:20:31;10.85;;;7.15;;
78308;SDS011;67566;42.022;21.356;2023-05-13T03:22:57;8.93;;;6.22;;
78308;SDS011;67566;42.022;21.356;2023-05-13T03:25:22;13.65;;;6.97;;
78308;SDS011;67566;42.022;21.356;2023-05-13T03:27:48;14.48;;;8.52;;
78308;SDS011;67566;42.022;21.356;2023-05-13T03:30:13;10.93;;;7.68;;
78308;SDS011;67566;42.022;21.356;2023-05-13T03:32:39;13.50;;;7.65;;
78308;SDS011;67566;42.022;21.356;2023-05-13T03:35:04;15.85;;;8.68;;
78308;SDS011;67566;42.022;21.356;2023-05-13T03:37:30;12.93;;;9.75;;
78308;SDS011;67566;42.022;21.356;2023-05-13T03:39:56;14.38;;;8.75;;
78308;SDS011;67566;42.022;21.356;2023-05-13T03:42:21;81.10;;;44.17;;
78308;SDS011;67566;42.022;21.356;2023-05-13T03:44:47;45.42;;;23.70;;
78308;SDS011;67566;42.022;21.356;2023-05-13T03:47:13;25.35;;;14.77;;
78308;SDS011;67566;42.022;21.356;2023-05-13T03:49:39;17.13;;;9.60;;
78308;SDS011;67566;42.022;21.356;2023-05-13T03:52:04;19.65;;;10.10;;
78308;SDS011;67566;42.022;21.356;2023-05-13T03:54:33;17.73;;;10.20;;
78308;SDS011;67566;42.022;21.356;2023-05-13T03:56:59;33.08;;;15.75;;
78308;SDS011;67566;42.022;21.356;2023-05-13T03:59:24;45.53;;;25.90;;
78308;SDS011;67566;42.022;21.356;2023-05-13T04:01:50;24.23;;;14.95;;
78308;SDS011;67566;42.022;21.356;2023-05-13T04:04:15;16.98;;;10.00;;
78308;SDS011;67566;42.022;21.356;2023-05-13T04:06:41;19.20;;;10.48;;
78308;SDS011;67566;42.022;21.356;2023-05-13T04:09:06;20.42;;;9.65;;
78308;SDS011;67566;42.022;21.356;2023-05-13T04:11:32;16.27;;;8.90;;
78308;SDS011;67566;42.022;21.356;2023-05-13T04:13:57;17.00;;;8.50;;
78308;SDS011;67566;42.022;21.356;2023-05-13T04:16:23;13.68;;;8.95;;
78308;SDS011;67566;42.022;21.356;2023-05-13T04:18:49;13.95;;;8.00;;
78308;SDS011;67566;42.022;21.356;2023-05-13T04:21:15;13.20;;;7.30;;
78308;SDS011;67566;42.022;21.356;2023-05-13T04:23:40;10.73;;;7.82;;
78308;SDS011;67566;42.022;21.356;2023-05-13T04:26:06;11.88;;;7.40;;
78308;SDS011;67566;42.022;21.356;2023-05-13T04:28:32;12.55;;;8.13;;
78308;SDS011;67566;42.022;21.356;2023-05-13T04:30:58;42.75;;;24.30;;
78308;SDS011;67566;42.022;21.356;2023-05-13T04:33:24;26.90;;;16.10;;
78308;SDS011;67566;42.022;21.356;2023-05-13T04:35:51;15.27;;;9.27;;
78308;SDS011;67566;42.022;21.356;2023-05-13T04:38:16;14.13;;;7.93;;
78308;SDS011;67566;42.022;21.356;2023-05-13T04:40:42;12.40;;;8.23;;
78308;SDS011;67566;42.022;21.356;2023-05-13T04:43:08;11.35;;;7.45;;
78308;SDS011;67566;42.022;21.356;2023-05-13T04:45:35;11.82;;;7.40;;
78308;SDS011;67566;42.022;21.356;2023-05-13T04:48:01;9.90;;;7.60;;
78308;SDS011;67566;42.022;21.356;2023-05-13T04:50:26;12.32;;;7.57;;
78308;SDS011;67566;42.022;21.356;2023-05-13T04:52:52;15.10;;;7.72;;
78308;SDS011;67566;42.022;21.356;2023-05-13T04:55:18;10.35;;;7.07;;
78308;SDS011;67566;42.022;21.356;2023-05-13T04:57:44;13.07;;;7.10;;
78308;SDS011;67566;42.022;21.356;2023-05-13T05:00:10;9.52;;;7.13;;
78308;SDS011;67566;42.022;21.356;2023-05-13T05:02:36;11.43;;;7.57;;
78308;SDS011;67566;42.022;21.356;2023-05-13T05:05:01;11.50;;;7.38;;
78308;SDS011;67566;42.022;21.356;2023-05-13T05:07:27;11.85;;;6.93;;
78308;SDS011;67566;42.022;21.356;2023-05-13T05:09:53;14.52;;;9.32;;
78308;SDS011;67566;42.022;21.356;2023-05-13T05:12:18;9.88;;;7.03;;
78308;SDS011;67566;42.022;21.356;2023-05-13T05:14:44;10.25;;;7.15;;
78308;SDS011;67566;42.022;21.356;2023-05-13T05:17:09;12.73;;;7.25;;
78308;SDS011;67566;42.022;21.356;2023-05-13T05:19:35;10.15;;;7.28;;
78308;SDS011;67566;42.022;21.356;2023-05-13T05:22:00;13.15;;;7.43;;
78308;SDS011;67566;42.022;21.356;2023-05-13T05:24:26;10.95;;;7.68;;
78308;SDS011;67566;42.022;21.356;2023-05-13T05:26:52;10.40;;;7.00;;
78308;SDS011;67566;42.022;21.356;2023-05-13T05:29:17;13.57;;;8.27;;
78308;SDS011;67566;42.022;21.356;2023-05-13T05:31:43;10.90;;;7.15;;
78308;SDS011;67566;42.022;21.356;2023-05-13T05:34:09;9.70;;;7.32;;
78308;SDS011;67566;42.022;21.356;2023-05-13T05:36:35;10.60;;;7.38;;
78308;SDS011;67566;42.022;21.356;2023-05-13T05:39:00;13.25;;;7.20;;
78308;SDS011;67566;42.022;21.356;2023-05-13T05:41:26;10.35;;;6.88;;
78308;SDS011;67566;42.022;21.356;2023-05-13T05:43:51;11.32;;;7.15;;
78308;SDS011;67566;42.022;21.356;2023-05-13T05:46:17;12.60;;;7.30;;
78308;SDS011;67566;42.022;21.356;2023-05-13T05:48:42;12.45;;;7.10;;
78308;SDS011;67566;42.022;21.356;2023-05-13T05:51:08;11.32;;;7.30;;
78308;SDS011;67566;42.022;21.356;2023-05-13T05:53:34;13.00;;;7.95;;
78308;SDS011;67566;42.022;21.356;2023-05-13T05:56:01;8.15;;;5.90;;
78308;SDS011;67566;42.022;21.356;2023-05-13T05:58:27;7.15;;;5.88;;
78308;SDS011;67566;42.022;21.356;2023-05-13T06:00:53;8.88;;;6.47;;
78308;SDS011;67566;42.022;21.356;2023-05-13T06:03:19;10.98;;;7.15;;
78308;SDS011;67566;42.022;21.356;2023-05-13T06:05:45;9.75;;;6.45;;
78308;SDS011;67566;42.022;21.356;2023-05-13T06:08:10;8.18;;;5.93;;
78308;SDS011;67566;42.022;21.356;2023-05-13T06:10:36;9.00;;;6.45;;
78308;SDS011;67566;42.022;21.356;2023-05-13T06:13:02;8.55;;;6.40;;
78308;SDS011;67566;42.022;21.356;2023-05-13T06:15:28;10.18;;;6.70;;
78308;SDS011;67566;42.022;21.356;2023-05-13T06:17:53;8.43;;;5.75;;
78308;SDS011;67566;42.022;21.356;2023-05-13T06:20:19;8.52;;;5.47;;
78308;SDS011;67566;42.022;21.356;2023-05-13T06:22:44;7.10;;;5.18;;
78308;SDS011;67566;42.022;21.356;2023-05-13T06:25:10;9.52;;;5.60;;
78308;SDS011;67566;42.022;21.356;2023-05-13T06:27:35;6.68;;;5.28;;
78308;SDS011;67566;42.022;21.356;2023-05-13T06:30:01;9.05;;;5.75;;
78308;SDS011;67566;42.022;21.356;2023-05-13T06:32:27;8.63;;;5.72;;
78308;SDS011;67566;42.022;21.356;2023-05-13T06:34:52;7.13;;;5.75;;
78308;SDS011;67566;42.022;21.356;2023-05-13T06:37:18;9.68;;;5.35;;
78308;SDS011;67566;42.022;21.356;2023-05-13T06:39:44;9.23;;;5.72;;
78308;SDS011;67566;42.022;21.356;2023-05-13T06:42:09;8.32;;;5.38;;
78308;SDS011;67566;42.022;21.356;2023-05-13T06:44:35;12.13;;;6.50;;
78308;SDS011;67566;42.022;21.356;2023-05-13T06:47:00;8.25;;;4.80;;
78308;SDS011;67566;42.022;21.356;2023-05-13T06:49:29;9.70;;;5.85;;
78308;SDS011;67566;42.022;21.356;2023-05-13T06:51:57;6.88;;;5.00;;
78308;SDS011;67566;42.022;21.356;2023-05-13T06:54:22;8.27;;;5.82;;
78308;SDS011;67566;42.022;21.356;2023-05-13T06:56:50;11.55;;;6.88;;
78308;SDS011;67566;42.022;21.356;2023-05-13T06:59:16;11.15;;;5.95;;
78308;SDS011;67566;42.022;21.356;2023-05-13T07:01:41;9.73;;;6.45;;
78308;SDS011;67566;42.022;21.356;2023-05-13T07:04:10;6.82;;;5.05;;
78308;SDS011;67566;42.022;21.356;2023-05-13T07:06:36;8.07;;;5.22;;
78308;SDS011;67566;42.022;21.356;2023-05-13T07:09:02;7.88;;;5.38;;
78308;SDS011;67566;42.022;21.356;2023-05-13T07:11:28;7.07;;;4.80;;
78308;SDS011;67566;42.022;21.356;2023-05-13T07:13:53;8.77;;;5.43;;
78308;SDS011;67566;42.022;21.356;2023-05-13T07:16:19;6.18;;;4.65;;
78308;SDS011;67566;42.022;21.356;2023-05-13T07:18:45;9.73;;;5.20;;
78308;SDS011;67566;42.022;21.356;2023-05-13T07:21:11;6.97;;;4.45;;
78308;SDS011;67566;42.022;21.356;2023-05-13T07:23:38;9.27;;;5.78;;
78308;SDS011;67566;42.022;21.356;2023-05-13T07:26:03;6.72;;;5.20;;
78308;SDS011;67566;42.022;21.356;2023-05-13T07:28:29;9.43;;;5.18;;
78308;SDS011;67566;42.022;21.356;2023-05-13T07:30:54;5.97;;;4.65;;
78308;SDS011;67566;42.022;21.356;2023-05-13T07:33:20;7.53;;;4.72;;
78308;SDS011;67566;42.022;21.356;2023-05-13T07:35:46;7.25;;;5.57;;
78308;SDS011;67566;42.022;21.356;2023-05-13T07:38:11;6.95;;;5.22;;
78308;SDS011;67566;42.022;21.356;2023-05-13T07:40:37;6.97;;;5.13;;
78308;SDS011;67566;42.022;21.356;2023-05-13T07:43:02;8.25;;;6.03;;
78308;SDS011;67566;42.022;21.356;2023-05-13T07:45:28;7.45;;;5.03;;
78308;SDS011;67566;42.022;21.356;2023-05-13T07:47:53;9.02;;;4.60;;
78308;SDS011;67566;42.022;21.356;2023-05-13T07:50:19;6.38;;;4.45;;
78308;SDS011;67566;42.022;21.356;2023-05-13T07:52:44;12.55;;;5.00;;
78308;SDS011;67566;42.022;21.356;2023-05-13T07:55:13;9.80;;;4.60;;
78308;SDS011;67566;42.022;21.356;2023-05-13T07:57:42;5.45;;;4.70;;
78308;SDS011;67566;42.022;21.356;2023-05-13T08:00:08;6.07;;;4.57;;
78308;SDS011;67566;42.022;21.356;2023-05-13T08:02:35;11.43;;;5.82;;
78308;SDS011;67566;42.022;21.356;2023-05-13T08:05:02;6.35;;;5.20;;
78308;SDS011;67566;42.022;21.356;2023-05-13T08:07:28;9.27;;;5.07;;
78308;SDS011;67566;42.022;21.356;2023-05-13T08:09:54;8.40;;;5.72;;
78308;SDS011;67566;42.022;21.356;2023-05-13T08:12:19;10.02;;;5.07;;
78308;SDS011;67566;42.022;21.356;2023-05-13T08:14:45;8.10;;;5.35;;
78308;SDS011;67566;42.022;21.356;2023-05-13T08:17:10;7.18;;;5.32;;
78308;SDS011;67566;42.022;21.356;2023-05-13T08:19:36;8.00;;;5.40;;
78308;SDS011;67566;42.022;21.356;2023-05-13T08:22:02;9.38;;;5.55;;
78308;SDS011;67566;42.022;21.356;2023-05-13T08:24:28;5.80;;;4.60;;
78308;SDS011;67566;42.022;21.356;2023-05-13T08:26:53;7.22;;;5.10;;
78308;SDS011;67566;42.022;21.356;2023-05-13T08:29:19;7.25;;;5.43;;
78308;SDS011;67566;42.022;21.356;2023-05-13T08:31:44;6.82;;;5.18;;
78308;SDS011;67566;42.022;21.356;2023-05-13T08:34:10;6.50;;;5.10;;
78308;SDS011;67566;42.022;21.356;2023-05-13T08:36:36;6.88;;;5.15;;
78308;SDS011;67566;42.022;21.356;2023-05-13T08:39:01;8.10;;;4.40;;
78308;SDS011;67566;42.022;21.356;2023-05-13T08:41:27;5.45;;;4.40;;
78308;SDS011;67566;42.022;21.356;2023-05-13T08:43:55;6.90;;;4.88;;
78308;SDS011;67566;42.022;21.356;2023-05-13T08:46:22;7.32;;;5.07;;
78308;SDS011;67566;42.022;21.356;2023-05-13T08:48:51;7.72;;;5.53;;
78308;SDS011;67566;42.022;21.356;2023-05-13T08:51:18;7.10;;;4.82;;
78308;SDS011;67566;42.022;21.356;2023-05-13T08:53:51;5.10;;;4.25;;
78308;SDS011;67566;42.022;21.356;2023-05-13T08:56:48;5.35;;;4.53;;
78308;SDS011;67566;42.022;21.356;2023-05-13T08:59:14;6.10;;;4.68;;
78308;SDS011;67566;42.022;21.356;2023-05-13T09:01:39;10.05;;;5.28;;
78308;SDS011;67566;42.022;21.356;2023-05-13T09:04:05;5.72;;;3.92;;
78308;SDS011;67566;42.022;21.356;2023-05-13T09:06:33;7.35;;;5.03;;
78308;SDS011;67566;42.022;21.356;2023-05-13T09:08:58;7.10;;;4.25;;
78308;SDS011;67566;42.022;21.356;2023-05-13T09:11:24;7.80;;;4.97;;
78308;SDS011;67566;42.022;21.356;2023-05-13T09:13:57;6.60;;;5.28;;
78308;SDS011;67566;42.022;21.356;2023-05-13T09:16:23;6.70;;;4.80;;
78308;SDS011;67566;42.022;21.356;2023-05-13T09:18:55;8.43;;;5.68;;
78308;SDS011;67566;42.022;21.356;2023-05-13T09:21:26;7.95;;;5.28;;
78308;SDS011;67566;42.022;21.356;2023-05-13T09:26:34;9.45;;;6.43;;
78308;SDS011;67566;42.022;21.356;2023-05-13T09:29:13;6.32;;;5.18;;
78308;SDS011;67566;42.022;21.356;2023-05-13T09:31:42;6.40;;;4.57;;
78308;SDS011;67566;42.022;21.356;2023-05-13T09:34:08;7.32;;;5.85;;
78308;SDS011;67566;42.022;21.356;2023-05-13T09:36:33;7.05;;;5.38;;
78308;SDS011;67566;42.022;21.356;2023-05-13T09:38:58;8.52;;;5.93;;
78308;SDS011;67566;42.022;21.356;2023-05-13T09:41:27;7.43;;;5.70;;
78308;SDS011;67566;42.022;21.356;2023-05-13T09:43:56;7.85;;;4.93;;
78308;SDS011;67566;42.022;21.356;2023-05-13T09:46:22;7.93;;;5.70;;
78308;SDS011;67566;42.022;21.356;2023-05-13T09:48:49;7.93;;;5.63;;
78308;SDS011;67566;42.022;21.356;2023-05-13T09:51:28;7.70;;;5.75;;
78308;SDS011;67566;42.022;21.356;2023-05-13T09:54:01;7.70;;;6.28;;
78308;SDS011;67566;42.022;21.356;2023-05-13T09:56:31;8.75;;;6.10;;
78308;SDS011;67566;42.022;21.356;2023-05-13T09:58:58;10.43;;;6.30;;
78308;SDS011;67566;42.022;21.356;2023-05-13T10:01:26;7.80;;;6.07;;
78308;SDS011;67566;42.022;21.356;2023-05-13T10:03:53;10.63;;;6.43;;
78308;SDS011;67566;42.022;21.356;2023-05-13T10:06:21;7.78;;;6.38;;
78308;SDS011;67566;42.022;21.356;2023-05-13T10:08:49;9.35;;;6.22;;
78308;SDS011;67566;42.022;21.356;2023-05-13T10:11:16;8.57;;;6.05;;
78308;SDS011;67566;42.022;21.356;2023-05-13T10:13:44;8.23;;;6.25;;
78308;SDS011;67566;42.022;21.356;2023-05-13T10:16:14;12.95;;;6.60;;
78308;SDS011;67566;42.022;21.356;2023-05-13T10:18:40;9.23;;;6.43;;
78308;SDS011;67566;42.022;21.356;2023-05-13T10:21:06;8.80;;;6.13;;
78308;SDS011;67566;42.022;21.356;2023-05-13T10:23:32;10.20;;;6.22;;
78308;SDS011;67566;42.022;21.356;2023-05-13T10:25:58;7.53;;;5.88;;
78308;SDS011;67566;42.022;21.356;2023-05-13T10:28:23;8.18;;;5.60;;
78308;SDS011;67566;42.022;21.356;2023-05-13T10:30:49;8.00;;;6.53;;
78308;SDS011;67566;42.022;21.356;2023-05-13T10:33:15;6.57;;;5.53;;
78308;SDS011;67566;42.022;21.356;2023-05-13T10:35:49;9.52;;;6.50;;
78308;SDS011;67566;42.022;21.356;2023-05-13T10:44:03;9.45;;;6.15;;
78308;SDS011;67566;42.022;21.356;2023-05-13T10:46:32;10.52;;;6.75;;
78308;SDS011;67566;42.022;21.356;2023-05-13T10:48:58;8.70;;;6.57;;
78308;SDS011;67566;42.022;21.356;2023-05-13T10:51:24;7.88;;;6.35;;
78308;SDS011;67566;42.022;21.356;2023-05-13T10:53:51;12.52;;;7.63;;
78308;SDS011;67566;42.022;21.356;2023-05-13T10:56:18;13.07;;;8.15;;
78308;SDS011;67566;42.022;21.356;2023-05-13T10:59:01;9.45;;;6.75;;
78308;SDS011;67566;42.022;21.356;2023-05-13T11:01:29;8.75;;;7.18;;
78308;SDS011;67566;42.022;21.356;2023-05-13T11:03:59;11.75;;;7.03;;
78308;SDS011;67566;42.022;21.356;2023-05-13T11:06:35;8.57;;;6.97;;
78308;SDS011;67566;42.022;21.356;2023-05-13T11:09:05;11.25;;;7.80;;
78308;SDS011;67566;42.022;21.356;2023-05-13T11:11:32;12.38;;;8.18;;
78308;SDS011;67566;42.022;21.356;2023-05-13T11:19:01;10.77;;;7.32;;
78308;SDS011;67566;42.022;21.356;2023-05-13T11:21:34;11.25;;;7.40;;
78308;SDS011;67566;42.022;21.356;2023-05-13T11:24:04;11.55;;;7.10;;
78308;SDS011;67566;42.022;21.356;2023-05-13T11:26:41;8.90;;;7.57;;
78308;SDS011;67566;42.022;21.356;2023-05-13T11:29:10;7.65;;;6.65;;
78308;SDS011;67566;42.022;21.356;2023-05-13T11:31:46;9.85;;;6.55;;
78308;SDS011;67566;42.022;21.356;2023-05-13T11:34:14;8.43;;;6.45;;
78308;SDS011;67566;42.022;21.356;2023-05-13T11:36:48;10.38;;;6.85;;
78308;SDS011;67566;42.022;21.356;2023-05-13T11:39:16;8.30;;;6.75;;
78308;SDS011;67566;42.022;21.356;2023-05-13T11:41:43;7.50;;;6.32;;
78308;SDS011;67566;42.022;21.356;2023-05-13T11:44:11;9.32;;;7.45;;
78308;SDS011;67566;42.022;21.356;2023-05-13T11:46:37;9.13;;;6.90;;
78308;SDS011;67566;42.022;21.356;2023-05-13T11:49:12;8.82;;;6.72;;
78308;SDS011;67566;42.022;21.356;2023-05-13T11:51:54;11.10;;;8.27;;
78308;SDS011;67566;42.022;21.356;2023-05-13T11:54:19;11.25;;;8.38;;
78308;SDS011;67566;42.022;21.356;2023-05-13T11:56:45;12.02;;;8.32;;
78308;SDS011;67566;42.022;21.356;2023-05-13T11:59:13;11.00;;;9.15;;
78308;SDS011;67566;42.022;21.356;2023-05-13T12:01:39;11.65;;;8.45;;
78308;SDS011;67566;42.022;21.356;2023-05-13T12:04:05;11.57;;;9.75;;
78308;SDS011;67566;42.022;21.356;2023-05-13T12:06:31;12.00;;;10.52;;
78308;SDS011;67566;42.022;21.356;2023-05-13T12:09:03;10.07;;;8.57;;
78308;SDS011;67566;42.022;21.356;2023-05-13T12:11:29;11.93;;;10.10;;
78308;SDS011;67566;42.022;21.356;2023-05-13T12:13:55;11.38;;;9.50;;
78308;SDS011;67566;42.022;21.356;2023-05-13T12:16:22;11.90;;;10.23;;
78308;SDS011;67566;42.022;21.356;2023-05-13T12:18:57;13.48;;;10.90;;
78308;SDS011;67566;42.022;21.356;2023-05-13T12:21:23;12.50;;;9.43;;
78308;SDS011;67566;42.022;21.356;2023-05-13T12:23:49;11.98;;;9.45;;
78308;SDS011;67566;42.022;21.356;2023-05-13T12:26:14;12.93;;;10.48;;
78308;SDS011;67566;42.022;21.356;2023-05-13T12:28:40;11.82;;;10.23;;
78308;SDS011;67566;42.022;21.356;2023-05-13T12:31:05;12.20;;;9.57;;
78308;SDS011;67566;42.022;21.356;2023-05-13T12:33:32;13.27;;;11.10;;
78308;SDS011;67566;42.022;21.356;2023-05-13T12:41:23;12.68;;;9.90;;
78308;SDS011;67566;42.022;21.356;2023-05-13T12:43:50;12.00;;;10.27;;
78308;SDS011;67566;42.022;21.356;2023-05-13T12:46:23;11.18;;;8.65;;
78308;SDS011;67566;42.022;21.356;2023-05-13T12:48:56;12.30;;;11.00;;
78308;SDS011;67566;42.022;21.356;2023-05-13T12:51:23;11.82;;;9.88;;
78308;SDS011;67566;42.022;21.356;2023-05-13T12:53:49;12.10;;;8.82;;
78308;SDS011;67566;42.022;21.356;2023-05-13T12:56:18;12.95;;;9.15;;
78308;SDS011;67566;42.022;21.356;2023-05-13T12:58:44;12.23;;;8.15;;
78308;SDS011;67566;42.022;21.356;2023-05-13T13:01:09;8.02;;;7.10;;
78308;SDS011;67566;42.022;21.356;2023-05-13T13:03:35;9.63;;;8.32;;
78308;SDS011;67566;42.022;21.356;2023-05-13T13:06:00;11.95;;;9.07;;
78308;SDS011;67566;42.022;21.356;2023-05-13T13:08:29;8.93;;;7.90;;
78308;SDS011;67566;42.022;21.356;2023-05-13T13:10:54;12.80;;;9.10;;
78308;SDS011;67566;42.022;21.356;2023-05-13T13:13:20;9.43;;;7.57;;
78308;SDS011;67566;42.022;21.356;2023-05-13T13:15:46;10.90;;;7.75;;
78308;SDS011;67566;42.022;21.356;2023-05-13T13:18:11;11.82;;;9.15;;
78308;SDS011;67566;42.022;21.356;2023-05-13T13:20:37;10.23;;;8.70;;
78308;SDS011;67566;42.022;21.356;2023-05-13T13:23:02;10.75;;;8.85;;
78308;SDS011;67566;42.022;21.356;2023-05-13T13:25:28;10.15;;;8.27;;
78308;SDS011;67566;42.022;21.356;2023-05-13T13:27:53;11.05;;;9.55;;
78308;SDS011;67566;42.022;21.356;2023-05-13T13:30:19;13.35;;;9.65;;
78308;SDS011;67566;42.022;21.356;2023-05-13T13:32:45;10.70;;;8.77;;
78308;SDS011;67566;42.022;21.356;2023-05-13T13:35:10;11.57;;;8.90;;
78308;SDS011;67566;42.022;21.356;2023-05-13T13:37:36;10.57;;;8.68;;
78308;SDS011;67566;42.022;21.356;2023-05-13T13:40:02;11.23;;;8.70;;
78308;SDS011;67566;42.022;21.356;2023-05-13T13:42:28;10.27;;;8.00;;
78308;SDS011;67566;42.022;21.356;2023-05-13T13:44:54;10.23;;;7.88;;
78308;SDS011;67566;42.022;21.356;2023-05-13T13:47:19;9.43;;;7.97;;
78308;SDS011;67566;42.022;21.356;2023-05-13T13:49:45;10.35;;;7.65;;
78308;SDS011;67566;42.022;21.356;2023-05-13T13:52:10;9.35;;;8.18;;
78308;SDS011;67566;42.022;21.356;2023-05-13T13:54:36;10.15;;;8.18;;
78308;SDS011;67566;42.022;21.356;2023-05-13T13:57:01;9.88;;;8.25;;
78308;SDS011;67566;42.022;21.356;2023-05-13T13:59:27;9.50;;;8.27;;
78308;SDS011;67566;42.022;21.356;2023-05-13T14:01:52;9.85;;;8.82;;
78308;SDS011;67566;42.022;21.356;2023-05-13T14:06:48;10.55;;;8.02;;
78308;SDS011;67566;42.022;21.356;2023-05-13T14:09:14;11.80;;;8.82;;
78308;SDS011;67566;42.022;21.356;2023-05-13T14:11:40;9.95;;;7.93;;
78308;SDS011;67566;42.022;21.356;2023-05-13T14:14:05;10.07;;;7.80;;
78308;SDS011;67566;42.022;21.356;2023-05-13T14:16:32;8.80;;;7.75;;
78308;SDS011;67566;42.022;21.356;2023-05-13T14:18:58;13.20;;;9.45;;
78308;SDS011;67566;42.022;21.356;2023-05-13T14:21:23;11.02;;;8.88;;
78308;SDS011;67566;42.022;21.356;2023-05-13T14:23:49;9.23;;;8.13;;
78308;SDS011;67566;42.022;21.356;2023-05-13T14:26:14;9.23;;;8.32;;
78308;SDS011;67566;42.022;21.356;2023-05-13T14:28:41;10.57;;;7.93;;
78308;SDS011;67566;42.022;21.356;2023-05-13T14:31:06;9.95;;;7.13;;
78308;SDS011;67566;42.022;21.356;2023-05-13T14:33:32;9.10;;;7.60;;
78308;SDS011;67566;42.022;21.356;2023-05-13T14:35:57;9.25;;;7.50;;
78308;SDS011;67566;42.022;21.356;2023-05-13T14:38:23;11.68;;;9.43;;
78308;SDS011;67566;42.022;21.356;2023-05-13T14:40:48;8.88;;;7.97;;
78308;SDS011;67566;42.022;21.356;2023-05-13T14:43:13;9.63;;;8.15;;
78308;SDS011;67566;42.022;21.356;2023-05-13T14:45:39;11.82;;;8.70;;
78308;SDS011;67566;42.022;21.356;2023-05-13T14:48:05;9.75;;;8.55;;
78308;SDS011;67566;42.022;21.356;2023-05-13T14:50:30;13.20;;;9.48;;
78308;SDS011;67566;42.022;21.356;2023-05-13T14:52:56;8.68;;;7.75;;